Time;durP1;ratioP1;P1;durP2;ratioP2;P2;SDS_P1;SDS_P2;PMS_P1;PMS_P2;Temp;Humidity;BMP_temperature;BMP_pressure;BME280_temperature;BME280_humidity;BME280_pressure;Samples;Min_cycle;Max_cycle;Signal;HPM_P1;HPM_P2
2020/12/13 00:02:14;;;;;;;11.60;6.20;;;21.50;53.20;;;;;;5075216;28;20198;-69
2020/12/13 00:04:40;;;;;;;8.70;5.13;;;21.50;53.20;;;;;;5075499;28;20190;-69
2020/12/13 00:07:07;;;;;;;8.63;5.03;;;21.50;53.30;;;;;;5075347;28;20190;-69
2020/12/13 00:09:33;;;;;;;8.03;5.60;;;21.50;53.30;;;;;;5075196;28;20574;-69
2020/12/13 00:12:02;;;;;;;11.70;5.27;;;21.50;53.30;;;;;;5075201;28;20488;-69
2020/12/13 00:14:28;;;;;;;7.50;4.80;;;21.50;53.80;;;;;;5075084;28;20415;-69
2020/12/13 00:16:53;;;;;;;12.00;5.40;;;21.50;53.30;;;;;;5075163;28;20428;-68
2020/12/13 00:19:19;;;;;;;13.67;5.80;;;21.50;53.30;;;;;;5075004;28;20224;-69
2020/12/13 00:21:52;;;;;;;9.63;5.67;;;21.40;53.20;;;;;;5074927;28;20202;-69
2020/12/13 00:24:19;;;;;;;8.80;5.20;;;21.50;53.30;;;;;;5074119;28;20225;-69
2020/12/13 00:26:44;;;;;;;10.97;5.60;;;21.40;53.30;;;;;;5075175;28;20448;-69
2020/12/13 00:29:10;;;;;;;10.13;5.50;;;21.40;53.30;;;;;;5074781;28;20838;-69
2020/12/13 00:31:36;;;;;;;10.80;5.10;;;21.40;53.30;;;;;;5074378;28;20533;-68
2020/12/13 00:34:02;;;;;;;11.63;5.40;;;21.40;53.30;;;;;;5074940;28;20413;-68
2020/12/13 00:36:28;;;;;;;10.07;5.03;;;21.40;53.30;;;;;;5074587;28;20194;-69
2020/12/13 00:38:53;;;;;;;9.23;5.90;;;21.40;53.30;;;;;;5075390;28;20495;-69
2020/12/13 00:41:19;;;;;;;7.63;5.50;;;21.40;53.30;;;;;;5074570;28;20185;-69
2020/12/13 00:43:45;;;;;;;10.90;5.57;;;21.40;53.30;;;;;;5074439;28;20600;-69
2020/12/13 00:46:10;;;;;;;8.37;4.90;;;21.40;53.30;;;;;;5074385;28;20190;-69
2020/12/13 00:48:36;;;;;;;10.27;5.90;;;21.40;53.40;;;;;;5074410;28;20920;-69
2020/12/13 00:51:02;;;;;;;9.30;5.30;;;21.40;53.40;;;;;;5074605;28;20261;-70
2020/12/13 00:53:28;;;;;;;8.17;4.47;;;21.40;53.40;;;;;;5074313;28;20174;-69
2020/12/13 00:55:53;;;;;;;7.97;5.20;;;21.30;53.30;;;;;;5072881;28;20565;-69
2020/12/13 00:58:19;;;;;;;10.60;4.47;;;21.30;53.30;;;;;;5074183;28;20170;-69
2020/12/13 01:00:44;;;;;;;10.20;5.23;;;21.30;53.40;;;;;;5074630;28;20526;-69
2020/12/13 01:03:10;;;;;;;8.97;4.97;;;21.30;53.40;;;;;;5074121;28;20185;-69
2020/12/13 01:05:35;;;;;;;10.83;5.20;;;21.30;53.40;;;;;;5074004;28;20259;-69
2020/12/13 01:08:01;;;;;;;9.80;5.70;;;21.30;53.50;;;;;;5074007;28;20540;-69
2020/12/13 01:10:28;;;;;;;7.73;5.20;;;21.30;53.40;;;;;;5072706;28;20171;-69
2020/12/13 01:12:54;;;;;;;8.43;5.37;;;21.30;53.40;;;;;;5073886;28;20820;-69
2020/12/13 01:15:19;;;;;;;8.63;4.90;;;21.30;53.40;;;;;;5073793;28;20416;-69
2020/12/13 01:17:46;;;;;;;8.10;4.83;;;21.30;53.40;;;;;;5072592;28;20922;-69
2020/12/13 01:20:13;;;;;;;6.70;4.80;;;21.30;53.40;;;;;;5073823;28;20637;-69
2020/12/13 01:22:39;;;;;;;9.97;4.60;;;21.30;53.40;;;;;;5074093;28;20496;-70
2020/12/13 01:25:07;;;;;;;9.43;5.30;;;21.30;53.40;;;;;;5073493;28;20551;-69
2020/12/13 01:27:33;;;;;;;7.70;4.83;;;21.30;53.40;;;;;;5073547;28;20178;-69
2020/12/13 01:29:59;;;;;;;6.30;4.17;;;21.30;53.50;;;;;;5073591;28;20408;-69
2020/12/13 01:32:24;;;;;;;7.03;5.00;;;21.30;53.50;;;;;;5073518;28;20401;-69
2020/12/13 01:34:50;;;;;;;7.17;5.13;;;21.30;53.50;;;;;;5073939;28;20409;-69
2020/12/13 01:37:16;;;;;;;10.50;5.30;;;21.30;53.50;;;;;;5073392;28;20673;-69
2020/12/13 01:39:42;;;;;;;8.87;5.37;;;21.20;53.40;;;;;;5073647;28;20174;-69
2020/12/13 01:42:07;;;;;;;8.40;5.30;;;21.30;53.50;;;;;;5072765;28;20174;-69
2020/12/13 01:44:34;;;;;;;8.63;4.83;;;21.20;53.40;;;;;;5073208;28;20444;-69
2020/12/13 01:47:02;;;;;;;6.97;4.23;;;21.20;53.40;;;;;;5073503;28;20277;-69
2020/12/13 01:49:33;;;;;;;8.83;5.47;;;21.20;53.40;;;;;;5073283;28;20409;-69
2020/12/13 01:54:50;;;;;;;7.43;5.03;;;21.20;53.50;;;;;;5073720;28;20384;-69
2020/12/13 01:57:19;;;;;;;7.00;4.20;;;21.20;53.50;;;;;;5073135;28;20428;-69
2020/12/13 01:59:49;;;;;;;6.00;4.37;;;21.20;53.50;;;;;;5073218;28;20415;-68
2020/12/13 02:02:18;;;;;;;7.20;4.40;;;21.20;53.50;;;;;;5073156;28;20411;-69
2020/12/13 02:04:46;;;;;;;7.77;4.70;;;21.20;53.50;;;;;;5073043;28;20667;-68
2020/12/13 02:07:12;;;;;;;8.07;5.00;;;21.20;53.60;;;;;;5072581;28;20424;-69
2020/12/13 02:09:38;;;;;;;8.77;4.90;;;21.20;53.50;;;;;;5073366;28;20413;-69
2020/12/13 02:12:03;;;;;;;9.17;4.30;;;21.20;53.50;;;;;;5073180;28;20480;-69
2020/12/13 02:14:29;;;;;;;9.33;5.20;;;21.20;53.50;;;;;;5073045;28;20220;-68
2020/12/13 02:16:55;;;;;;;6.63;4.27;;;21.20;53.50;;;;;;5072965;28;20724;-69
2020/12/13 02:19:21;;;;;;;9.67;5.40;;;21.20;53.60;;;;;;5073040;28;20173;-69
2020/12/13 02:21:48;;;;;;;10.33;5.13;;;21.20;53.60;;;;;;5073221;28;20177;-69
2020/12/13 02:24:15;;;;;;;5.70;4.17;;;21.20;53.60;;;;;;5073140;28;20464;-68
2020/12/13 02:26:42;;;;;;;10.70;4.67;;;21.20;53.60;;;;;;5072873;28;20507;-68
2020/12/13 02:29:08;;;;;;;6.53;4.37;;;21.10;53.50;;;;;;5073128;28;20911;-68
2020/12/13 02:31:34;;;;;;;7.50;4.93;;;21.20;53.60;;;;;;5072865;28;20408;-69
2020/12/13 02:34:02;;;;;;;7.67;4.83;;;21.10;53.50;;;;;;5072831;28;20415;-69
2020/12/13 02:36:28;;;;;;;5.07;4.00;;;21.10;53.50;;;;;;5072985;28;20436;-69
2020/12/13 02:38:54;;;;;;;7.83;5.57;;;21.10;53.50;;;;;;5072859;28;20400;-69
2020/12/13 02:41:20;;;;;;;5.00;3.77;;;21.10;53.50;;;;;;5072703;28;20799;-69
2020/12/13 02:43:45;;;;;;;7.27;4.67;;;21.10;53.50;;;;;;5072966;28;20167;-68
2020/12/13 02:46:11;;;;;;;8.17;4.63;;;21.10;53.50;;;;;;5071366;28;20201;-68
2020/12/13 02:48:37;;;;;;;5.30;3.90;;;21.10;53.50;;;;;;5072942;28;20216;-69
2020/12/13 02:51:03;;;;;;;5.57;4.00;;;21.10;53.50;;;;;;5072677;28;20584;-67
2020/12/13 02:53:28;;;;;;;8.67;4.40;;;21.10;53.50;;;;;;5073101;28;20533;-69
2020/12/13 02:55:54;;;;;;;8.57;5.00;;;21.10;53.50;;;;;;5075743;28;20680;-69
2020/12/13 02:58:19;;;;;;;5.97;4.20;;;21.10;53.50;;;;;;5075202;28;20174;-69
2020/12/13 03:00:45;;;;;;;5.20;3.70;;;21.10;53.70;;;;;;5076455;28;20652;-69
2020/12/13 03:03:11;;;;;;;6.57;4.00;;;21.10;53.50;;;;;;5076375;28;20198;-69
2020/12/13 03:05:36;;;;;;;4.80;3.47;;;21.10;53.50;;;;;;5076278;28;20258;-69
2020/12/13 03:08:02;;;;;;;6.17;4.00;;;21.10;53.50;;;;;;5076392;28;20536;-69
2020/12/13 03:10:27;;;;;;;9.90;4.47;;;21.10;53.50;;;;;;5076327;28;20212;-69
2020/12/13 03:12:53;;;;;;;6.10;4.70;;;21.10;53.50;;;;;;5076487;28;20217;-69
2020/12/13 03:15:18;;;;;;;8.33;4.30;;;21.10;53.50;;;;;;5081661;23;20222;-69
2020/12/13 03:17:44;;;;;;;6.20;3.80;;;21.10;54.00;;;;;;5076127;28;20165;-69
2020/12/13 03:20:10;;;;;;;5.80;4.47;;;21.10;53.50;;;;;;5076074;28;20527;-69
2020/12/13 03:22:35;;;;;;;7.47;4.33;;;21.10;53.50;;;;;;5076075;28;20171;-69
2020/12/13 03:25:01;;;;;;;5.10;3.90;;;21.10;53.50;;;;;;5076250;28;20210;-68
2020/12/13 03:27:27;;;;;;;5.77;4.30;;;21.10;53.50;;;;;;5076124;28;20190;-69
2020/12/13 03:29:53;;;;;;;8.13;5.03;;;21.10;53.50;;;;;;5075890;28;20408;-69
2020/12/13 03:32:19;;;;;;;7.77;4.70;;;21.10;53.50;;;;;;5074679;28;20165;-68
2020/12/13 03:34:44;;;;;;;5.80;4.20;;;21.10;53.50;;;;;;5076034;28;20843;-68
2020/12/13 03:37:10;;;;;;;5.60;4.00;;;21.10;53.50;;;;;;5075719;28;20541;-68
2020/12/13 03:39:36;;;;;;;6.70;4.33;;;21.10;53.50;;;;;;5075735;28;20220;-69
2020/12/13 03:42:01;;;;;;;6.07;3.77;;;21.10;53.60;;;;;;5075935;28;20170;-69
2020/12/13 03:44:27;;;;;;;6.83;4.47;;;21.10;53.50;;;;;;5075626;28;20191;-66
2020/12/13 03:46:53;;;;;;;6.13;3.57;;;21.10;53.50;;;;;;5075413;28;20190;-68
2020/12/13 03:49:18;;;;;;;6.17;4.33;;;21.10;53.60;;;;;;5075838;28;20198;-69
2020/12/13 03:51:44;;;;;;;5.33;4.07;;;21.10;53.60;;;;;;5075832;28;20231;-68
2020/12/13 03:54:10;;;;;;;8.40;4.37;;;21.10;53.60;;;;;;5075419;28;20185;-68
2020/12/13 03:56:35;;;;;;;5.83;3.60;;;21.10;53.60;;;;;;5075694;28;20201;-69
2020/12/13 03:59:01;;;;;;;6.27;3.83;;;21.10;53.60;;;;;;5075426;28;20175;-69
2020/12/13 04:01:26;;;;;;;5.80;3.80;;;21.10;53.60;;;;;;5075345;28;20686;-69
2020/12/13 04:03:52;;;;;;;5.43;3.80;;;21.10;53.60;;;;;;5075498;28;20177;-69
2020/12/13 04:06:17;;;;;;;6.50;4.20;;;21.10;54.20;;;;;;5074423;28;20228;-69
2020/12/13 04:08:43;;;;;;;6.77;4.77;;;21.00;53.50;;;;;;5075546;28;20529;-69
2020/12/13 04:11:09;;;;;;;6.23;3.83;;;21.10;53.60;;;;;;5075729;28;20249;-69
2020/12/13 04:13:34;;;;;;;5.73;3.40;;;21.10;54.20;;;;;;5075465;28;20162;-68
2020/12/13 04:16:00;;;;;;;6.30;3.80;;;21.10;53.70;;;;;;5074977;28;20217;-69
2020/12/13 04:18:26;;;;;;;5.67;3.70;;;21.10;53.70;;;;;;5075006;28;20178;-68
2020/12/13 04:20:51;;;;;;;6.40;3.67;;;21.10;53.70;;;;;;5074987;28;20232;-69
2020/12/13 04:23:17;;;;;;;9.33;4.40;;;21.10;53.70;;;;;;5075216;28;20200;-67
2020/12/13 04:25:42;;;;;;;7.63;3.90;;;21.10;53.70;;;;;;5073482;28;20206;-69
2020/12/13 04:28:08;;;;;;;6.87;3.43;;;21.00;53.60;;;;;;5074890;28;20177;-69
2020/12/13 04:30:34;;;;;;;5.47;3.17;;;21.00;53.60;;;;;;5074877;28;20202;-68
2020/12/13 04:32:59;;;;;;;5.50;4.17;;;21.00;53.60;;;;;;5075001;28;20193;-69
2020/12/13 04:35:25;;;;;;;7.13;3.83;;;21.00;53.60;;;;;;5074726;28;20174;-68
2020/12/13 04:37:50;;;;;;;6.10;4.17;;;21.00;53.60;;;;;;5074944;28;20178;-69
2020/12/13 04:40:16;;;;;;;5.73;3.57;;;21.00;53.60;;;;;;5073411;28;20187;-68
2020/12/13 04:42:42;;;;;;;9.50;4.17;;;21.00;53.60;;;;;;5074555;28;20171;-69
2020/12/13 04:45:09;;;;;;;9.07;4.23;;;21.00;53.60;;;;;;5074662;28;20202;-69
2020/12/13 04:47:41;;;;;;;6.20;4.20;;;21.00;54.20;;;;;;5074663;28;20194;-69
2020/12/13 04:50:07;;;;;;;5.63;3.90;;;21.00;53.60;;;;;;5074471;28;20437;-69
2020/12/13 04:52:34;;;;;;;4.20;3.07;;;21.00;53.60;;;;;;5074638;28;20976;-69
2020/12/13 04:54:59;;;;;;;5.87;3.50;;;21.10;53.70;;;;;;5074600;28;20448;-68
2020/12/13 04:57:25;;;;;;;5.00;3.23;;;21.00;53.60;;;;;;5074145;28;20462;-68
2020/12/13 04:59:51;;;;;;;6.03;4.30;;;21.00;53.60;;;;;;5074467;28;20190;-69
2020/12/13 05:02:17;;;;;;;5.00;3.73;;;21.00;53.70;;;;;;5074205;28;20167;-69
2020/12/13 05:04:43;;;;;;;6.57;3.73;;;21.00;53.70;;;;;;5073967;28;20209;-69
2020/12/13 05:07:11;;;;;;;6.80;4.27;;;21.00;53.70;;;;;;5074091;28;20425;-68
2020/12/13 05:09:39;;;;;;;6.70;3.87;;;21.00;53.70;;;;;;5074013;28;20412;-69
2020/12/13 05:12:05;;;;;;;4.90;3.77;;;21.00;53.70;;;;;;5071694;28;20413;-69
2020/12/13 05:14:30;;;;;;;4.80;3.63;;;21.00;53.70;;;;;;5073814;28;20416;-68
2020/12/13 05:17:07;;;;;;;5.17;3.50;;;21.00;53.70;;;;;;5073446;28;20665;-68
2020/12/13 05:19:32;;;;;;;4.60;3.87;;;21.00;53.70;;;;;;5073724;28;20182;-69
2020/12/13 05:22:00;;;;;;;5.00;4.30;;;21.00;53.70;;;;;;5074045;28;20419;-69
2020/12/13 05:24:27;;;;;;;4.23;3.00;;;21.00;53.80;;;;;;5072417;28;20265;-69
2020/12/13 05:27:06;;;;;;;6.37;3.77;;;21.00;53.70;;;;;;5073672;28;20424;-69
2020/12/13 05:29:35;;;;;;;5.10;3.40;;;21.00;53.80;;;;;;5073949;28;20409;-69
2020/12/13 05:32:18;;;;;;;5.40;3.80;;;21.00;53.80;;;;;;5073560;28;20777;-69
2020/12/13 05:34:46;;;;;;;3.50;3.20;;;21.00;53.80;;;;;;5073722;28;20391;-68
2020/12/13 05:37:17;;;;;;;5.97;4.00;;;20.90;53.70;;;;;;5073410;28;20443;-69
2020/12/13 05:39:44;;;;;;;2.97;2.70;;;20.90;53.70;;;;;;5073773;28;20397;-69
2020/12/13 05:42:12;;;;;;;4.00;3.20;;;20.90;53.70;;;;;;5073483;28;20413;-68
2020/12/13 05:44:58;;;;;;;5.50;3.50;;;20.90;53.70;;;;;;5073342;28;20440;-68
2020/12/13 05:52:52;;;;;;;4.37;3.23;;;20.90;53.70;;;;;;5073272;28;20472;-69
2020/12/13 05:55:19;;;;;;;4.10;3.17;;;20.90;53.70;;;;;;5073129;28;20420;-67
2020/12/13 05:57:48;;;;;;;3.93;3.20;;;21.00;53.80;;;;;;5073218;28;20907;-69
2020/12/13 06:00:16;;;;;;;5.80;4.00;;;21.00;53.70;;;;;;5073229;28;20408;-69
2020/12/13 06:02:45;;;;;;;5.00;3.40;;;21.00;53.70;;;;;;5073160;28;20404;-69
2020/12/13 06:05:15;;;;;;;4.70;3.27;;;21.00;53.70;;;;;;5073044;28;20510;-69
2020/12/13 06:07:50;;;;;;;5.93;3.77;;;21.00;53.70;;;;;;5073287;28;20432;-69
2020/12/13 06:10:24;;;;;;;4.53;3.40;;;21.10;53.70;;;;;;5073369;28;20380;-68
2020/12/13 06:12:57;;;;;;;4.07;3.23;;;21.00;53.60;;;;;;5071778;28;20412;-69
2020/12/13 06:15:22;;;;;;;4.80;3.13;;;21.10;53.70;;;;;;5072945;28;20433;-69
2020/12/13 06:17:48;;;;;;;3.73;3.20;;;21.10;53.70;;;;;;5073009;28;20416;-69
2020/12/13 06:20:14;;;;;;;4.90;3.73;;;21.10;53.60;;;;;;5073356;28;20487;-69
2020/12/13 06:22:40;;;;;;;4.40;3.30;;;21.10;53.60;;;;;;5073223;28;20412;-68
2020/12/13 06:25:06;;;;;;;6.57;3.30;;;21.10;53.60;;;;;;5072887;28;20240;-69
2020/12/13 06:27:32;;;;;;;4.03;2.90;;;21.10;53.60;;;;;;5071557;28;20194;-69
2020/12/13 06:29:57;;;;;;;4.47;3.20;;;21.10;53.60;;;;;;5078796;28;20177;-69
2020/12/13 06:32:24;;;;;;;5.57;3.27;;;21.10;53.60;;;;;;5079516;28;20408;-69
2020/12/13 06:34:49;;;;;;;4.10;3.30;;;21.10;53.60;;;;;;5079548;28;20182;-69
2020/12/13 06:37:16;;;;;;;5.07;2.60;;;21.10;53.50;;;;;;5079116;28;20482;-68
2020/12/13 06:39:42;;;;;;;5.23;3.47;;;21.10;53.50;;;;;;5079746;28;20169;-68
2020/12/13 06:42:08;;;;;;;9.70;2.97;;;21.10;53.50;;;;;;5079723;28;20412;-69
2020/12/13 06:44:33;;;;;;;7.43;3.50;;;21.10;53.50;;;;;;5079363;28;20189;-69
2020/12/13 06:47:00;;;;;;;4.33;3.03;;;21.10;53.50;;;;;;5079331;28;20190;-68
2020/12/13 06:49:26;;;;;;;5.20;2.97;;;21.10;53.50;;;;;;5079339;28;20679;-68
2020/12/13 06:51:51;;;;;;;3.40;2.23;;;21.10;53.50;;;;;;5079320;28;20408;-69
2020/12/13 06:54:19;;;;;;;6.30;3.17;;;21.10;53.50;;;;;;5079289;28;20174;-68
2020/12/13 06:56:47;;;;;;;4.40;3.10;;;21.10;53.50;;;;;;5079157;28;20232;-68
2020/12/13 06:59:14;;;;;;;4.80;3.33;;;21.10;53.50;;;;;;5079733;28;20412;-69
2020/12/13 07:01:42;;;;;;;3.67;3.10;;;21.10;53.50;;;;;;5079509;28;20425;-69
2020/12/13 07:04:23;;;;;;;4.93;3.20;;;21.10;53.50;;;;;;5079393;28;20507;-69
2020/12/13 07:07:17;;;;;;;3.87;3.03;;;21.10;53.40;;;;;;5079183;28;20458;-69
2020/12/13 07:09:43;;;;;;;4.57;2.97;;;21.10;53.50;;;;;;5079194;28;20499;-68
2020/12/13 07:12:09;;;;;;;4.07;2.90;;;21.10;53.50;;;;;;5079190;28;20970;-68
2020/12/13 07:14:37;;;;;;;3.63;2.80;;;21.10;53.50;;;;;;5078838;28;20178;-69
2020/12/13 07:17:09;;;;;;;4.03;3.57;;;21.10;53.50;;;;;;5079152;28;20830;-69
2020/12/13 07:19:37;;;;;;;6.03;2.90;;;21.10;53.40;;;;;;5079656;28;20868;-68
2020/12/13 07:22:12;;;;;;;4.50;2.80;;;21.20;53.50;;;;;;5079041;28;20443;-68
2020/12/13 07:24:39;;;;;;;5.10;3.50;;;21.20;53.50;;;;;;5079233;28;20446;-68
2020/12/13 07:27:06;;;;;;;4.20;2.63;;;21.20;53.50;;;;;;5078896;28;20436;-69
2020/12/13 07:29:32;;;;;;;3.77;2.80;;;21.20;53.50;;;;;;5079217;28;20404;-69
2020/12/13 07:32:02;;;;;;;3.93;2.73;;;21.20;53.50;;;;;;5078986;28;20488;-69
2020/12/13 07:34:28;;;;;;;6.03;3.40;;;21.20;53.50;;;;;;5079193;28;21031;-69
2020/12/13 07:36:54;;;;;;;3.60;2.93;;;21.20;53.50;;;;;;5078856;28;20536;-68
2020/12/13 07:39:22;;;;;;;4.17;3.00;;;21.20;53.40;;;;;;5079173;28;20781;-69
2020/12/13 07:41:48;;;;;;;3.30;2.60;;;21.20;53.40;;;;;;5074809;28;20424;-69
2020/12/13 07:44:18;;;;;;;4.17;2.80;;;21.20;53.40;;;;;;5075922;28;20446;-69
2020/12/13 07:46:44;;;;;;;4.77;2.63;;;21.20;53.40;;;;;;5075618;28;20433;-69
2020/12/13 07:49:15;;;;;;;3.47;2.53;;;21.20;53.40;;;;;;5074348;28;20466;-68
2020/12/13 07:51:46;;;;;;;4.53;2.53;;;21.20;53.40;;;;;;5075566;28;20393;-69
2020/12/13 07:54:18;;;;;;;3.37;2.47;;;21.20;53.40;;;;;;5075579;28;20397;-68
2020/12/13 07:56:51;;;;;;;3.27;2.70;;;21.20;53.40;;;;;;5075467;28;20501;-69
2020/12/13 07:59:22;;;;;;;3.93;2.90;;;21.20;53.40;;;;;;5074181;28;20417;-69
2020/12/13 08:01:56;;;;;;;3.83;2.53;;;21.20;53.40;;;;;;5075649;28;20503;-69
2020/12/13 08:04:36;;;;;;;4.40;3.33;;;21.20;53.50;;;;;;5075225;28;20443;-69
2020/12/13 08:07:04;;;;;;;3.30;2.67;;;21.20;53.40;;;;;;5075547;28;20428;-68
2020/12/13 08:09:30;;;;;;;3.97;2.90;;;21.20;53.50;;;;;;5075212;28;20501;-69
2020/12/13 08:11:56;;;;;;;3.30;2.83;;;21.20;53.50;;;;;;5075269;28;20413;-69
2020/12/13 08:14:23;;;;;;;4.77;2.60;;;21.20;53.50;;;;;;5075079;28;20409;-68
2020/12/13 08:16:53;;;;;;;3.97;3.43;;;21.20;53.50;;;;;;5075014;28;20600;-69
2020/12/13 08:19:26;;;;;;;3.30;2.50;;;21.20;53.50;;;;;;5074901;28;20419;-69
2020/12/13 08:22:02;;;;;;;3.97;2.90;;;21.20;53.50;;;;;;5073592;28;20428;-68
2020/12/13 08:24:29;;;;;;;3.10;2.60;;;21.20;53.50;;;;;;5075191;28;20438;-68
2020/12/13 08:27:00;;;;;;;2.47;2.27;;;21.20;53.50;;;;;;5075046;28;20432;-69
2020/12/13 08:29:27;;;;;;;4.00;2.73;;;21.20;53.50;;;;;;5074844;28;20495;-68
2020/12/13 08:31:54;;;;;;;3.07;2.33;;;21.20;53.50;;;;;;5075114;28;20441;-69
2020/12/13 08:34:25;;;;;;;3.33;2.33;;;21.20;53.50;;;;;;5074952;28;20416;-69
2020/12/13 08:36:55;;;;;;;5.33;2.60;;;21.20;53.50;;;;;;5074593;28;20456;-68
2020/12/13 08:39:28;;;;;;;3.40;2.20;;;21.20;53.50;;;;;;5073574;28;20826;-69
2020/12/13 08:41:54;;;;;;;3.40;2.77;;;21.20;53.50;;;;;;5074530;28;20413;-69
2020/12/13 08:44:52;;;;;;;3.80;3.10;;;21.20;54.00;;;;;;5074502;28;20493;-68
2020/12/13 08:47:19;;;;;;;3.80;2.60;;;21.20;53.50;;;;;;5072468;28;20293;-69
2020/12/13 08:49:48;;;;;;;4.43;2.93;;;21.20;53.50;;;;;;5074717;28;20424;-68
2020/12/13 08:52:22;;;;;;;3.40;2.50;;;21.20;53.50;;;;;;5074203;28;20466;-69
2020/12/13 08:54:53;;;;;;;3.00;2.70;;;21.20;53.50;;;;;;5074385;28;20441;-69
2020/12/13 08:57:45;;;;;;;4.43;2.30;;;21.20;53.50;;;;;;5074537;28;20443;-68
2020/12/13 09:00:18;;;;;;;4.40;2.77;;;21.20;53.40;;;;;;5072186;28;20428;-69
2020/12/13 09:02:59;;;;;;;3.00;2.60;;;21.20;53.50;;;;;;5074247;28;20479;-69
2020/12/13 09:05:32;;;;;;;3.30;2.50;;;21.20;53.40;;;;;;5074265;28;20517;-69
2020/12/13 09:07:59;;;;;;;3.53;3.23;;;21.20;53.40;;;;;;5074108;28;20397;-69
2020/12/13 09:10:35;;;;;;;3.40;2.60;;;21.20;53.40;;;;;;5074048;28;20778;-69
2020/12/13 09:13:06;;;;;;;3.00;2.70;;;21.20;53.40;;;;;;5074247;28;20385;-69
2020/12/13 09:15:31;;;;;;;2.87;2.10;;;21.20;53.40;;;;;;5073842;28;20469;-69
2020/12/13 09:17:59;;;;;;;4.00;2.67;;;21.20;53.40;;;;;;5074181;28;20418;-69
2020/12/13 09:20:34;;;;;;;2.30;2.10;;;21.20;53.40;;;;;;5074172;28;20236;-69
2020/12/13 09:23:06;;;;;;;3.23;2.50;;;21.20;53.40;;;;;;5073777;28;20512;-69
2020/12/13 09:25:36;;;;;;;3.20;2.40;;;21.20;53.40;;;;;;5073572;28;20455;-69
2020/12/13 09:28:03;;;;;;;3.80;2.63;;;21.30;53.50;;;;;;5073647;28;20421;-69
2020/12/13 09:30:29;;;;;;;4.43;2.80;;;21.20;53.40;;;;;;5073690;28;20412;-68
2020/12/13 09:32:54;;;;;;;3.70;2.13;;;21.20;53.40;;;;;;5073929;28;20405;-69
2020/12/13 09:35:20;;;;;;;3.87;2.67;;;21.20;53.40;;;;;;5073545;28;20174;-69
2020/12/13 09:37:45;;;;;;;3.00;2.30;;;21.20;53.40;;;;;;5073645;28;20182;-68
2020/12/13 09:40:11;;;;;;;3.17;2.57;;;21.20;53.40;;;;;;5073949;28;20544;-69
2020/12/13 09:42:37;;;;;;;3.60;2.63;;;21.20;53.40;;;;;;5072176;28;20273;-68
2020/12/13 09:45:03;;;;;;;3.20;2.30;;;21.20;53.40;;;;;;5073413;28;20194;-69
2020/12/13 09:47:29;;;;;;;2.87;2.43;;;21.20;53.40;;;;;;5073576;28;20193;-69
2020/12/13 09:49:58;;;;;;;3.50;2.40;;;21.20;53.40;;;;;;5073383;28;20488;-68
2020/12/13 09:52:27;;;;;;;3.27;2.40;;;21.20;53.40;;;;;;5073293;28;20190;-68
2020/12/13 09:54:53;;;;;;;3.37;2.13;;;21.20;53.50;;;;;;5073216;28;20408;-69
2020/12/13 09:57:19;;;;;;;3.73;2.50;;;21.20;53.50;;;;;;5073301;28;20435;-68
2020/12/13 09:59:45;;;;;;;3.23;2.20;;;21.20;53.50;;;;;;5073474;28;20725;-69
2020/12/13 10:02:10;;;;;;;37.53;5.40;;;21.30;53.60;;;;;;5073345;28;20416;-70
2020/12/13 10:04:36;;;;;;;3.70;2.60;;;21.30;53.90;;;;;;5072506;28;20610;-68
2020/12/13 10:07:22;;;;;;;3.20;2.63;;;21.30;53.80;;;;;;5073365;28;20568;-69
2020/12/13 10:09:47;;;;;;;4.47;3.10;;;21.30;53.80;;;;;;5073386;28;20412;-69
2020/12/13 10:12:13;;;;;;;5.07;4.00;;;21.30;53.80;;;;;;5073259;28;20408;-69
2020/12/13 10:14:39;;;;;;;12.97;7.93;;;21.30;53.60;;;;;;5072990;28;20185;-69
2020/12/13 10:17:04;;;;;;;21.57;14.43;;;21.30;53.50;;;;;;5073143;28;20248;-68
2020/12/13 10:19:30;;;;;;;26.90;18.67;;;21.30;53.40;;;;;;5073471;28;20179;-69
2020/12/13 10:21:56;;;;;;;27.10;16.03;;;21.30;53.10;;;;;;5071723;28;20206;-69
2020/12/13 10:24:22;;;;;;;22.73;14.30;;;21.30;53.50;;;;;;5073392;28;20448;-69
2020/12/13 10:26:47;;;;;;;23.53;16.90;;;21.20;52.70;;;;;;5073169;28;20190;-68
2020/12/13 10:29:13;;;;;;;21.33;15.20;;;21.30;52.60;;;;;;5073404;28;20205;-68
2020/12/13 10:31:46;;;;;;;19.30;14.90;;;21.20;52.40;;;;;;5072997;28;20198;-69
2020/12/13 10:34:12;;;;;;;24.43;15.30;;;21.20;52.20;;;;;;5072860;28;20159;-69
2020/12/13 10:36:39;;;;;;;26.30;16.00;;;21.20;51.70;;;;;;5073035;28;20990;-69
2020/12/13 10:39:06;;;;;;;26.57;17.27;;;21.30;52.40;;;;;;5073099;28;20915;-69
2020/12/13 10:41:32;;;;;;;32.30;19.17;;;21.20;51.60;;;;;;5072692;28;20427;-69
2020/12/13 10:43:58;;;;;;;29.73;19.83;;;21.20;51.40;;;;;;5072704;28;20393;-69
2020/12/13 10:46:24;;;;;;;31.17;21.17;;;21.20;51.40;;;;;;5073272;28;20432;-68
2020/12/13 10:48:50;;;;;;;34.30;21.90;;;21.10;51.30;;;;;;5072970;28;20174;-69
2020/12/13 10:51:17;;;;;;;30.03;21.50;;;21.10;51.10;;;;;;5072758;28;20193;-69
2020/12/13 10:53:43;;;;;;;28.40;20.93;;;21.10;51.10;;;;;;5072939;28;20171;-69
2020/12/13 10:56:10;;;;;;;26.50;18.97;;;21.10;50.90;;;;;;5072583;28;20443;-69
2020/12/13 10:58:38;;;;;;;24.77;18.97;;;21.10;50.60;;;;;;5072632;28;20420;-69
2020/12/13 11:01:03;;;;;;;26.33;17.57;;;21.10;50.60;;;;;;5071266;28;20566;-69
2020/12/13 11:03:29;;;;;;;24.73;18.50;;;21.10;50.80;;;;;;5072486;28;20499;-68
2020/12/13 11:05:55;;;;;;;19.20;15.70;;;21.00;50.60;;;;;;5072475;28;20614;-69
2020/12/13 11:08:23;;;;;;;20.70;15.83;;;21.00;50.70;;;;;;5072480;28;20411;-69
2020/12/13 11:10:50;;;;;;;21.30;16.10;;;21.00;50.50;;;;;;5072787;28;20166;-69
2020/12/13 11:13:16;;;;;;;21.97;14.23;;;20.90;50.40;;;;;;5072554;28;20419;-69
2020/12/13 11:15:43;;;;;;;18.10;14.50;;;20.90;50.40;;;;;;5074799;28;20546;-68
2020/12/13 11:18:09;;;;;;;21.17;14.60;;;20.90;50.60;;;;;;5076203;28;21097;-69
2020/12/13 11:20:35;;;;;;;20.97;14.30;;;20.90;50.50;;;;;;5076128;28;20416;-69
2020/12/13 11:23:01;;;;;;;20.47;13.93;;;20.90;50.30;;;;;;5076126;28;20416;-68
2020/12/13 11:25:27;;;;;;;16.30;12.87;;;20.90;50.10;;;;;;5075043;28;20465;-69
2020/12/13 11:27:52;;;;;;;19.37;14.60;;;20.90;50.10;;;;;;5076347;28;20413;-68
2020/12/13 11:30:18;;;;;;;17.90;12.43;;;20.90;50.40;;;;;;5076239;28;20547;-69
2020/12/13 11:32:44;;;;;;;16.77;13.67;;;20.90;50.60;;;;;;5075985;28;20173;-68
2020/12/13 11:35:12;;;;;;;19.70;13.87;;;20.90;50.60;;;;;;5076165;28;20535;-68
2020/12/13 11:37:38;;;;;;;16.40;11.93;;;20.90;50.70;;;;;;5075792;28;20575;-70
2020/12/13 11:40:05;;;;;;;36.57;15.53;;;21.00;50.90;;;;;;5074646;28;20417;-69
2020/12/13 11:42:30;;;;;;;21.33;12.97;;;21.00;51.00;;;;;;5076086;28;20528;-70
2020/12/13 11:44:56;;;;;;;17.97;12.00;;;21.10;51.10;;;;;;5075750;28;20493;-67
2020/12/13 11:47:22;;;;;;;31.80;13.13;;;21.10;51.10;;;;;;5075589;28;20244;-69
2020/12/13 11:49:47;;;;;;;19.40;12.33;;;21.10;51.10;;;;;;5075875;28;20594;-68
2020/12/13 11:52:13;;;;;;;15.80;12.00;;;21.20;51.20;;;;;;5076131;28;20659;-69
2020/12/13 11:54:39;;;;;;;14.10;11.17;;;21.20;51.20;;;;;;5075885;28;20564;-69
2020/12/13 11:57:04;;;;;;;11.60;9.63;;;21.20;51.20;;;;;;5075588;28;20597;-69
2020/12/13 11:59:30;;;;;;;11.63;9.93;;;21.30;51.30;;;;;;5075719;28;20178;-69
2020/12/13 12:01:56;;;;;;;11.73;9.40;;;21.30;51.20;;;;;;5075802;28;20438;-69
2020/12/13 12:04:23;;;;;;;11.70;9.33;;;21.30;51.20;;;;;;5075355;28;20190;-69
2020/12/13 12:06:49;;;;;;;11.97;10.77;;;21.30;51.20;;;;;;5075382;28;20205;-69
2020/12/13 12:09:15;;;;;;;10.93;9.20;;;21.30;51.80;;;;;;5074078;28;20491;-69
2020/12/13 12:11:42;;;;;;;10.47;9.37;;;21.40;51.30;;;;;;5075317;28;20782;-69
2020/12/13 12:14:11;;;;;;;10.70;9.60;;;21.40;51.30;;;;;;5075218;28;20393;-69
2020/12/13 12:16:38;;;;;;;9.97;8.23;;;21.40;51.30;;;;;;5074979;28;20456;-68
2020/12/13 12:19:05;;;;;;;9.67;7.97;;;21.40;51.30;;;;;;5075516;28;20408;-68
2020/12/13 12:21:31;;;;;;;12.57;9.03;;;21.40;51.30;;;;;;5075368;28;20412;-69
2020/12/13 12:23:56;;;;;;;10.60;8.97;;;21.50;51.40;;;;;;5075429;28;20388;-69
2020/12/13 12:26:27;;;;;;;13.10;8.77;;;21.50;51.40;;;;;;5074328;28;20456;-69
2020/12/13 12:28:53;;;;;;;10.80;8.67;;;21.50;51.40;;;;;;5075075;28;20157;-69
2020/12/13 12:31:20;;;;;;;10.57;9.50;;;21.50;51.40;;;;;;5075624;28;20409;-69
2020/12/13 12:33:46;;;;;;;10.80;8.03;;;21.50;52.00;;;;;;5074926;28;20206;-69
2020/12/13 12:36:20;;;;;;;9.90;7.57;;;21.50;51.50;;;;;;5074761;28;20428;-69
2020/12/13 12:38:46;;;;;;;10.10;7.67;;;21.50;51.50;;;;;;5075178;28;20761;-69
2020/12/13 12:41:14;;;;;;;8.40;6.60;;;21.50;51.50;;;;;;5074623;28;20907;-70
2020/12/13 12:43:39;;;;;;;8.50;7.70;;;21.50;51.50;;;;;;5074914;28;20428;-70
2020/12/13 12:46:05;;;;;;;9.20;7.93;;;21.60;51.60;;;;;;5074788;28;20974;-69
2020/12/13 12:48:31;;;;;;;8.27;7.47;;;21.60;51.60;;;;;;5074650;28;20915;-69
2020/12/13 12:51:02;;;;;;;8.87;7.97;;;21.60;51.60;;;;;;5074629;28;20159;-69
2020/12/13 12:53:28;;;;;;;8.47;7.67;;;21.60;51.60;;;;;;5074805;28;20182;-70